sensor_id;sensor_type;location;lat;lon;timestamp;P1;durP1;ratioP1;P2;durP2;ratioP2
60336;SDS011;46978;50.288;28.624;2022-10-31T00:01:01;7.23;;;3.02;;
60336;SDS011;46978;50.288;28.624;2022-10-31T00:02:03;7.93;;;2.88;;
60336;SDS011;46978;50.288;28.624;2022-10-31T00:03:05;6.69;;;2.65;;
60336;SDS011;46978;50.288;28.624;2022-10-31T00:04:06;8.72;;;3.00;;
60336;SDS011;46978;50.288;28.624;2022-10-31T00:05:08;7.83;;;2.81;;
60336;SDS011;46978;50.288;28.624;2022-10-31T00:06:11;7.62;;;2.79;;
60336;SDS011;46978;50.288;28.624;2022-10-31T00:07:13;7.75;;;2.59;;
60336;SDS011;46978;50.288;28.624;2022-10-31T00:08:15;6.99;;;2.42;;
60336;SDS011;46978;50.288;28.624;2022-10-31T00:09:17;6.56;;;2.98;;
60336;SDS011;46978;50.288;28.624;2022-10-31T00:10:19;7.18;;;2.84;;
60336;SDS011;46978;50.288;28.624;2022-10-31T00:11:21;8.45;;;2.87;;
60336;SDS011;46978;50.288;28.624;2022-10-31T00:12:23;9.01;;;2.67;;
60336;SDS011;46978;50.288;28.624;2022-10-31T00:13:25;7.03;;;2.79;;
60336;SDS011;46978;50.288;28.624;2022-10-31T00:14:26;6.80;;;2.68;;
60336;SDS011;46978;50.288;28.624;2022-10-31T00:15:28;7.37;;;2.56;;
60336;SDS011;46978;50.288;28.624;2022-10-31T00:16:30;8.80;;;2.51;;
60336;SDS011;46978;50.288;28.624;2022-10-31T00:17:34;6.35;;;2.27;;
60336;SDS011;46978;50.288;28.624;2022-10-31T00:19:59;7.82;;;2.75;;
60336;SDS011;46978;50.288;28.624;2022-10-31T00:21:01;6.38;;;2.84;;
60336;SDS011;46978;50.288;28.624;2022-10-31T00:22:04;9.75;;;2.92;;
60336;SDS011;46978;50.288;28.624;2022-10-31T00:23:06;6.96;;;3.14;;
60336;SDS011;46978;50.288;28.624;2022-10-31T00:24:10;6.30;;;2.94;;
60336;SDS011;46978;50.288;28.624;2022-10-31T00:26:38;7.71;;;3.01;;
60336;SDS011;46978;50.288;28.624;2022-10-31T00:27:40;5.99;;;2.58;;
60336;SDS011;46978;50.288;28.624;2022-10-31T00:28:42;6.28;;;2.93;;
60336;SDS011;46978;50.288;28.624;2022-10-31T00:29:44;9.77;;;2.86;;
60336;SDS011;46978;50.288;28.624;2022-10-31T00:30:46;10.21;;;2.74;;
60336;SDS011;46978;50.288;28.624;2022-10-31T00:31:47;6.84;;;2.65;;
60336;SDS011;46978;50.288;28.624;2022-10-31T00:32:49;5.49;;;2.44;;
60336;SDS011;46978;50.288;28.624;2022-10-31T00:33:51;6.83;;;2.50;;
60336;SDS011;46978;50.288;28.624;2022-10-31T00:34:52;6.26;;;2.97;;
60336;SDS011;46978;50.288;28.624;2022-10-31T00:35:54;7.14;;;2.81;;
60336;SDS011;46978;50.288;28.624;2022-10-31T00:36:57;8.03;;;2.71;;
60336;SDS011;46978;50.288;28.624;2022-10-31T00:37:59;5.05;;;2.51;;
60336;SDS011;46978;50.288;28.624;2022-10-31T00:39:00;8.31;;;2.73;;
60336;SDS011;46978;50.288;28.624;2022-10-31T00:40:03;8.05;;;3.13;;
60336;SDS011;46978;50.288;28.624;2022-10-31T00:41:05;7.29;;;2.81;;
60336;SDS011;46978;50.288;28.624;2022-10-31T00:42:07;12.03;;;3.33;;
60336;SDS011;46978;50.288;28.624;2022-10-31T00:43:08;5.49;;;2.38;;
60336;SDS011;46978;50.288;28.624;2022-10-31T00:44:10;7.51;;;2.47;;
60336;SDS011;46978;50.288;28.624;2022-10-31T00:45:12;8.80;;;2.65;;
60336;SDS011;46978;50.288;28.624;2022-10-31T00:46:15;7.78;;;2.95;;
60336;SDS011;46978;50.288;28.624;2022-10-31T00:47:16;7.11;;;2.65;;
60336;SDS011;46978;50.288;28.624;2022-10-31T00:48:18;8.20;;;2.72;;
60336;SDS011;46978;50.288;28.624;2022-10-31T00:49:20;8.17;;;2.97;;
60336;SDS011;46978;50.288;28.624;2022-10-31T00:50:22;6.83;;;2.63;;
60336;SDS011;46978;50.288;28.624;2022-10-31T00:51:24;9.21;;;2.87;;
60336;SDS011;46978;50.288;28.624;2022-10-31T00:52:25;8.31;;;2.59;;
60336;SDS011;46978;50.288;28.624;2022-10-31T00:53:27;5.13;;;2.46;;
60336;SDS011;46978;50.288;28.624;2022-10-31T00:54:29;6.77;;;2.54;;
60336;SDS011;46978;50.288;28.624;2022-10-31T00:55:31;7.76;;;2.69;;
60336;SDS011;46978;50.288;28.624;2022-10-31T00:56:33;8.57;;;2.84;;
60336;SDS011;46978;50.288;28.624;2022-10-31T00:58:56;7.83;;;2.28;;
60336;SDS011;46978;50.288;28.624;2022-10-31T00:59:58;7.00;;;2.73;;
60336;SDS011;46978;50.288;28.624;2022-10-31T01:01:02;8.28;;;2.77;;
60336;SDS011;46978;50.288;28.624;2022-10-31T01:02:04;7.63;;;2.57;;
60336;SDS011;46978;50.288;28.624;2022-10-31T01:03:06;7.38;;;2.53;;
60336;SDS011;46978;50.288;28.624;2022-10-31T01:04:09;5.29;;;2.33;;
60336;SDS011;46978;50.288;28.624;2022-10-31T01:05:11;8.07;;;2.73;;
60336;SDS011;46978;50.288;28.624;2022-10-31T01:06:15;7.01;;;2.36;;
60336;SDS011;46978;50.288;28.624;2022-10-31T01:07:16;7.01;;;2.55;;
60336;SDS011;46978;50.288;28.624;2022-10-31T01:08:18;11.75;;;3.23;;
60336;SDS011;46978;50.288;28.624;2022-10-31T01:09:20;6.47;;;2.57;;
60336;SDS011;46978;50.288;28.624;2022-10-31T01:10:22;5.51;;;2.36;;
60336;SDS011;46978;50.288;28.624;2022-10-31T01:11:24;9.96;;;3.19;;
60336;SDS011;46978;50.288;28.624;2022-10-31T01:12:25;6.31;;;2.25;;
60336;SDS011;46978;50.288;28.624;2022-10-31T01:13:27;5.01;;;2.25;;
60336;SDS011;46978;50.288;28.624;2022-10-31T01:14:29;5.47;;;2.29;;
60336;SDS011;46978;50.288;28.624;2022-10-31T01:15:31;8.42;;;3.01;;
60336;SDS011;46978;50.288;28.624;2022-10-31T01:16:32;4.71;;;2.65;;
60336;SDS011;46978;50.288;28.624;2022-10-31T01:17:34;6.88;;;2.55;;
60336;SDS011;46978;50.288;28.624;2022-10-31T01:18:36;7.69;;;2.66;;
60336;SDS011;46978;50.288;28.624;2022-10-31T01:19:38;6.85;;;2.33;;
60336;SDS011;46978;50.288;28.624;2022-10-31T01:20:40;8.68;;;3.04;;
60336;SDS011;46978;50.288;28.624;2022-10-31T01:21:41;9.05;;;2.34;;
60336;SDS011;46978;50.288;28.624;2022-10-31T01:22:43;8.45;;;2.81;;
60336;SDS011;46978;50.288;28.624;2022-10-31T01:23:45;7.28;;;2.43;;
60336;SDS011;46978;50.288;28.624;2022-10-31T01:24:47;5.26;;;2.55;;
60336;SDS011;46978;50.288;28.624;2022-10-31T01:25:49;5.78;;;2.66;;
60336;SDS011;46978;50.288;28.624;2022-10-31T01:26:51;6.53;;;2.49;;
60336;SDS011;46978;50.288;28.624;2022-10-31T01:27:52;6.95;;;2.69;;
60336;SDS011;46978;50.288;28.624;2022-10-31T01:28:55;6.53;;;2.90;;
60336;SDS011;46978;50.288;28.624;2022-10-31T01:30:05;9.64;;;2.63;;
60336;SDS011;46978;50.288;28.624;2022-10-31T01:31:08;7.34;;;3.03;;
60336;SDS011;46978;50.288;28.624;2022-10-31T01:32:10;6.11;;;2.75;;
60336;SDS011;46978;50.288;28.624;2022-10-31T01:33:12;8.69;;;2.74;;
60336;SDS011;46978;50.288;28.624;2022-10-31T01:34:14;6.52;;;2.73;;
60336;SDS011;46978;50.288;28.624;2022-10-31T01:35:18;9.46;;;3.00;;
60336;SDS011;46978;50.288;28.624;2022-10-31T01:36:24;8.41;;;2.85;;
60336;SDS011;46978;50.288;28.624;2022-10-31T01:37:25;7.99;;;2.80;;
60336;SDS011;46978;50.288;28.624;2022-10-31T01:38:27;7.38;;;2.55;;
60336;SDS011;46978;50.288;28.624;2022-10-31T01:39:29;7.95;;;2.37;;
60336;SDS011;46978;50.288;28.624;2022-10-31T01:40:30;7.37;;;2.55;;
60336;SDS011;46978;50.288;28.624;2022-10-31T01:41:33;6.39;;;2.63;;
60336;SDS011;46978;50.288;28.624;2022-10-31T01:42:37;6.68;;;2.61;;
60336;SDS011;46978;50.288;28.624;2022-10-31T01:43:42;8.13;;;2.96;;
60336;SDS011;46978;50.288;28.624;2022-10-31T01:44:59;6.33;;;2.66;;
60336;SDS011;46978;50.288;28.624;2022-10-31T01:45:57;6.68;;;2.40;;
60336;SDS011;46978;50.288;28.624;2022-10-31T01:49:23;6.89;;;2.46;;
60336;SDS011;46978;50.288;28.624;2022-10-31T01:50:34;6.13;;;2.62;;
60336;SDS011;46978;50.288;28.624;2022-10-31T01:51:40;4.73;;;2.35;;
60336;SDS011;46978;50.288;28.624;2022-10-31T01:52:47;7.23;;;2.41;;
60336;SDS011;46978;50.288;28.624;2022-10-31T01:53:52;5.66;;;2.47;;
60336;SDS011;46978;50.288;28.624;2022-10-31T01:55:03;5.48;;;2.52;;
60336;SDS011;46978;50.288;28.624;2022-10-31T01:56:06;7.55;;;2.59;;
60336;SDS011;46978;50.288;28.624;2022-10-31T01:57:09;8.50;;;2.59;;
60336;SDS011;46978;50.288;28.624;2022-10-31T01:58:14;5.29;;;2.20;;
60336;SDS011;46978;50.288;28.624;2022-10-31T01:59:19;5.74;;;2.67;;
60336;SDS011;46978;50.288;28.624;2022-10-31T02:00:23;4.96;;;2.51;;
60336;SDS011;46978;50.288;28.624;2022-10-31T02:01:25;7.85;;;2.53;;
60336;SDS011;46978;50.288;28.624;2022-10-31T02:02:27;7.45;;;2.51;;
60336;SDS011;46978;50.288;28.624;2022-10-31T02:03:30;9.00;;;2.48;;
60336;SDS011;46978;50.288;28.624;2022-10-31T02:04:33;8.97;;;2.81;;
60336;SDS011;46978;50.288;28.624;2022-10-31T02:05:36;9.48;;;2.74;;
60336;SDS011;46978;50.288;28.624;2022-10-31T02:06:40;7.09;;;2.79;;
60336;SDS011;46978;50.288;28.624;2022-10-31T02:08:04;7.57;;;2.66;;
60336;SDS011;46978;50.288;28.624;2022-10-31T02:09:07;6.50;;;2.49;;
60336;SDS011;46978;50.288;28.624;2022-10-31T02:10:10;6.94;;;2.54;;
60336;SDS011;46978;50.288;28.624;2022-10-31T02:11:11;5.91;;;2.31;;
60336;SDS011;46978;50.288;28.624;2022-10-31T02:12:14;6.47;;;2.42;;
60336;SDS011;46978;50.288;28.624;2022-10-31T02:13:17;7.62;;;2.61;;
60336;SDS011;46978;50.288;28.624;2022-10-31T02:14:21;6.39;;;2.35;;
60336;SDS011;46978;50.288;28.624;2022-10-31T02:15:24;8.11;;;2.45;;
60336;SDS011;46978;50.288;28.624;2022-10-31T02:16:27;5.95;;;2.43;;
60336;SDS011;46978;50.288;28.624;2022-10-31T02:17:29;5.70;;;2.49;;
60336;SDS011;46978;50.288;28.624;2022-10-31T02:18:32;6.14;;;2.66;;
60336;SDS011;46978;50.288;28.624;2022-10-31T02:19:41;6.23;;;2.86;;
60336;SDS011;46978;50.288;28.624;2022-10-31T02:22:16;6.98;;;2.73;;
60336;SDS011;46978;50.288;28.624;2022-10-31T02:26:17;6.67;;;2.47;;
60336;SDS011;46978;50.288;28.624;2022-10-31T02:32:46;6.19;;;2.42;;
60336;SDS011;46978;50.288;28.624;2022-10-31T02:35:28;6.59;;;2.69;;
60336;SDS011;46978;50.288;28.624;2022-10-31T02:36:52;6.59;;;2.33;;
60336;SDS011;46978;50.288;28.624;2022-10-31T02:38:13;7.44;;;2.62;;
60336;SDS011;46978;50.288;28.624;2022-10-31T02:39:13;6.84;;;2.58;;
60336;SDS011;46978;50.288;28.624;2022-10-31T02:40:27;7.23;;;2.53;;
60336;SDS011;46978;50.288;28.624;2022-10-31T02:43:07;7.44;;;2.69;;
60336;SDS011;46978;50.288;28.624;2022-10-31T02:44:15;6.58;;;2.65;;
60336;SDS011;46978;50.288;28.624;2022-10-31T02:46:24;6.15;;;2.73;;
60336;SDS011;46978;50.288;28.624;2022-10-31T02:46:51;7.00;;;2.71;;
60336;SDS011;46978;50.288;28.624;2022-10-31T02:47:55;6.18;;;2.62;;
60336;SDS011;46978;50.288;28.624;2022-10-31T02:49:03;7.21;;;2.71;;
60336;SDS011;46978;50.288;28.624;2022-10-31T02:50:14;8.11;;;2.78;;
60336;SDS011;46978;50.288;28.624;2022-10-31T02:51:27;8.15;;;2.73;;
60336;SDS011;46978;50.288;28.624;2022-10-31T02:52:30;9.11;;;3.23;;
60336;SDS011;46978;50.288;28.624;2022-10-31T02:53:33;7.74;;;2.21;;
60336;SDS011;46978;50.288;28.624;2022-10-31T02:54:36;7.71;;;2.60;;
60336;SDS011;46978;50.288;28.624;2022-10-31T02:56:46;6.94;;;2.82;;
60336;SDS011;46978;50.288;28.624;2022-10-31T02:57:51;8.46;;;2.62;;
60336;SDS011;46978;50.288;28.624;2022-10-31T02:58:56;7.67;;;2.96;;
60336;SDS011;46978;50.288;28.624;2022-10-31T03:00:03;7.56;;;2.96;;
60336;SDS011;46978;50.288;28.624;2022-10-31T03:04:03;8.62;;;3.37;;
60336;SDS011;46978;50.288;28.624;2022-10-31T03:06:15;8.27;;;2.77;;
60336;SDS011;46978;50.288;28.624;2022-10-31T03:09:29;10.96;;;2.96;;
60336;SDS011;46978;50.288;28.624;2022-10-31T03:10:38;10.98;;;3.41;;
60336;SDS011;46978;50.288;28.624;2022-10-31T03:11:50;8.77;;;3.06;;
60336;SDS011;46978;50.288;28.624;2022-10-31T03:14:20;11.30;;;3.55;;
60336;SDS011;46978;50.288;28.624;2022-10-31T03:15:27;7.67;;;3.51;;
60336;SDS011;46978;50.288;28.624;2022-10-31T03:16:47;8.19;;;3.73;;
60336;SDS011;46978;50.288;28.624;2022-10-31T03:19:03;8.27;;;3.84;;
60336;SDS011;46978;50.288;28.624;2022-10-31T03:20:13;7.00;;;3.41;;
60336;SDS011;46978;50.288;28.624;2022-10-31T03:21:21;9.99;;;3.96;;
60336;SDS011;46978;50.288;28.624;2022-10-31T03:22:25;9.29;;;3.16;;
60336;SDS011;46978;50.288;28.624;2022-10-31T03:23:30;7.63;;;3.21;;
60336;SDS011;46978;50.288;28.624;2022-10-31T03:24:36;10.39;;;3.29;;
60336;SDS011;46978;50.288;28.624;2022-10-31T03:25:40;6.90;;;3.38;;
60336;SDS011;46978;50.288;28.624;2022-10-31T03:26:45;8.11;;;3.01;;
60336;SDS011;46978;50.288;28.624;2022-10-31T03:27:50;6.33;;;2.93;;
60336;SDS011;46978;50.288;28.624;2022-10-31T03:28:58;9.12;;;3.02;;
60336;SDS011;46978;50.288;28.624;2022-10-31T03:30:00;7.74;;;2.67;;
60336;SDS011;46978;50.288;28.624;2022-10-31T03:31:04;6.52;;;2.59;;
60336;SDS011;46978;50.288;28.624;2022-10-31T03:32:09;10.59;;;3.14;;
60336;SDS011;46978;50.288;28.624;2022-10-31T03:33:15;7.79;;;2.68;;
60336;SDS011;46978;50.288;28.624;2022-10-31T03:34:19;6.88;;;2.58;;
60336;SDS011;46978;50.288;28.624;2022-10-31T03:35:22;7.07;;;2.63;;
60336;SDS011;46978;50.288;28.624;2022-10-31T03:36:27;6.06;;;2.61;;
60336;SDS011;46978;50.288;28.624;2022-10-31T03:37:32;5.87;;;2.37;;
60336;SDS011;46978;50.288;28.624;2022-10-31T03:38:36;5.78;;;2.15;;
60336;SDS011;46978;50.288;28.624;2022-10-31T03:39:41;8.45;;;2.47;;
60336;SDS011;46978;50.288;28.624;2022-10-31T03:40:45;7.19;;;2.33;;
60336;SDS011;46978;50.288;28.624;2022-10-31T03:41:57;6.19;;;2.67;;
60336;SDS011;46978;50.288;28.624;2022-10-31T03:43:18;8.66;;;3.30;;
60336;SDS011;46978;50.288;28.624;2022-10-31T03:44:22;6.29;;;2.59;;
60336;SDS011;46978;50.288;28.624;2022-10-31T03:45:26;10.14;;;3.94;;
60336;SDS011;46978;50.288;28.624;2022-10-31T03:46:30;10.78;;;4.98;;
60336;SDS011;46978;50.288;28.624;2022-10-31T03:47:33;12.05;;;5.28;;
60336;SDS011;46978;50.288;28.624;2022-10-31T03:48:37;10.58;;;4.51;;
60336;SDS011;46978;50.288;28.624;2022-10-31T03:49:40;14.26;;;4.45;;
60336;SDS011;46978;50.288;28.624;2022-10-31T03:50:45;9.57;;;3.90;;
60336;SDS011;46978;50.288;28.624;2022-10-31T03:53:06;9.31;;;3.39;;
60336;SDS011;46978;50.288;28.624;2022-10-31T03:54:13;9.78;;;3.49;;
60336;SDS011;46978;50.288;28.624;2022-10-31T03:55:19;10.99;;;3.47;;
60336;SDS011;46978;50.288;28.624;2022-10-31T03:56:42;5.17;;;2.41;;
60336;SDS011;46978;50.288;28.624;2022-10-31T03:59:04;6.79;;;3.14;;
60336;SDS011;46978;50.288;28.624;2022-10-31T04:00:08;7.05;;;2.84;;
60336;SDS011;46978;50.288;28.624;2022-10-31T04:01:16;4.63;;;2.20;;
60336;SDS011;46978;50.288;28.624;2022-10-31T04:02:20;5.86;;;2.35;;
60336;SDS011;46978;50.288;28.624;2022-10-31T04:03:25;5.17;;;2.46;;
60336;SDS011;46978;50.288;28.624;2022-10-31T04:04:29;5.38;;;2.44;;
60336;SDS011;46978;50.288;28.624;2022-10-31T04:05:32;6.58;;;2.42;;
60336;SDS011;46978;50.288;28.624;2022-10-31T04:06:35;6.20;;;2.94;;
60336;SDS011;46978;50.288;28.624;2022-10-31T04:07:41;8.71;;;2.39;;
60336;SDS011;46978;50.288;28.624;2022-10-31T04:08:47;7.01;;;2.43;;
60336;SDS011;46978;50.288;28.624;2022-10-31T04:09:53;5.49;;;2.41;;
60336;SDS011;46978;50.288;28.624;2022-10-31T04:10:59;5.17;;;2.66;;
60336;SDS011;46978;50.288;28.624;2022-10-31T04:12:03;5.57;;;2.03;;
60336;SDS011;46978;50.288;28.624;2022-10-31T04:13:13;6.26;;;2.59;;
60336;SDS011;46978;50.288;28.624;2022-10-31T04:15:59;5.84;;;2.39;;
60336;SDS011;46978;50.288;28.624;2022-10-31T04:17:01;7.40;;;2.82;;
60336;SDS011;46978;50.288;28.624;2022-10-31T04:18:06;7.27;;;2.94;;
60336;SDS011;46978;50.288;28.624;2022-10-31T04:19:08;8.23;;;2.74;;
60336;SDS011;46978;50.288;28.624;2022-10-31T04:20:15;7.47;;;2.37;;
60336;SDS011;46978;50.288;28.624;2022-10-31T04:21:17;5.76;;;2.61;;
60336;SDS011;46978;50.288;28.624;2022-10-31T04:22:19;6.28;;;2.65;;
60336;SDS011;46978;50.288;28.624;2022-10-31T04:23:24;5.07;;;2.13;;
60336;SDS011;46978;50.288;28.624;2022-10-31T04:24:28;6.32;;;2.31;;
60336;SDS011;46978;50.288;28.624;2022-10-31T04:26:51;5.43;;;2.39;;
60336;SDS011;46978;50.288;28.624;2022-10-31T04:27:53;6.42;;;2.50;;
60336;SDS011;46978;50.288;28.624;2022-10-31T04:28:55;7.67;;;2.91;;
60336;SDS011;46978;50.288;28.624;2022-10-31T04:29:57;7.92;;;2.57;;
60336;SDS011;46978;50.288;28.624;2022-10-31T04:30:58;6.95;;;2.53;;
60336;SDS011;46978;50.288;28.624;2022-10-31T04:32:00;6.11;;;2.63;;
60336;SDS011;46978;50.288;28.624;2022-10-31T04:33:02;9.76;;;3.53;;
60336;SDS011;46978;50.288;28.624;2022-10-31T04:34:04;8.54;;;4.29;;
60336;SDS011;46978;50.288;28.624;2022-10-31T04:35:06;8.35;;;4.62;;
60336;SDS011;46978;50.288;28.624;2022-10-31T04:36:08;9.01;;;3.90;;
60336;SDS011;46978;50.288;28.624;2022-10-31T04:37:10;6.28;;;3.92;;
60336;SDS011;46978;50.288;28.624;2022-10-31T04:38:12;10.37;;;5.79;;
60336;SDS011;46978;50.288;28.624;2022-10-31T04:39:14;10.69;;;6.05;;
60336;SDS011;46978;50.288;28.624;2022-10-31T04:40:16;8.91;;;5.39;;
60336;SDS011;46978;50.288;28.624;2022-10-31T04:41:18;8.71;;;3.98;;
60336;SDS011;46978;50.288;28.624;2022-10-31T04:43:41;8.98;;;3.60;;
60336;SDS011;46978;50.288;28.624;2022-10-31T04:44:43;7.58;;;2.97;;
60336;SDS011;46978;50.288;28.624;2022-10-31T04:45:44;6.59;;;3.29;;
60336;SDS011;46978;50.288;28.624;2022-10-31T04:46:46;6.37;;;3.57;;
60336;SDS011;46978;50.288;28.624;2022-10-31T04:47:48;5.69;;;3.28;;
60336;SDS011;46978;50.288;28.624;2022-10-31T04:48:50;5.67;;;2.78;;
60336;SDS011;46978;50.288;28.624;2022-10-31T04:49:51;6.73;;;2.34;;
60336;SDS011;46978;50.288;28.624;2022-10-31T04:50:58;6.35;;;2.87;;
60336;SDS011;46978;50.288;28.624;2022-10-31T04:52:03;6.69;;;2.34;;
60336;SDS011;46978;50.288;28.624;2022-10-31T04:53:05;6.83;;;2.80;;
60336;SDS011;46978;50.288;28.624;2022-10-31T04:54:07;6.79;;;2.47;;
60336;SDS011;46978;50.288;28.624;2022-10-31T04:55:09;7.10;;;2.89;;
60336;SDS011;46978;50.288;28.624;2022-10-31T04:56:12;5.73;;;2.42;;
60336;SDS011;46978;50.288;28.624;2022-10-31T04:58:37;7.35;;;2.73;;
60336;SDS011;46978;50.288;28.624;2022-10-31T04:59:39;6.21;;;2.26;;
60336;SDS011;46978;50.288;28.624;2022-10-31T05:00:40;4.71;;;2.14;;
60336;SDS011;46978;50.288;28.624;2022-10-31T05:01:43;8.37;;;2.28;;
60336;SDS011;46978;50.288;28.624;2022-10-31T05:02:48;8.06;;;2.30;;
60336;SDS011;46978;50.288;28.624;2022-10-31T05:03:51;8.08;;;2.37;;
60336;SDS011;46978;50.288;28.624;2022-10-31T05:04:53;5.76;;;2.24;;
60336;SDS011;46978;50.288;28.624;2022-10-31T05:05:54;4.91;;;2.21;;
60336;SDS011;46978;50.288;28.624;2022-10-31T05:06:56;6.98;;;2.41;;
60336;SDS011;46978;50.288;28.624;2022-10-31T05:07:58;6.04;;;2.60;;
60336;SDS011;46978;50.288;28.624;2022-10-31T05:08:59;4.25;;;2.04;;
60336;SDS011;46978;50.288;28.624;2022-10-31T05:10:02;6.42;;;2.28;;
60336;SDS011;46978;50.288;28.624;2022-10-31T05:11:04;5.97;;;2.11;;
60336;SDS011;46978;50.288;28.624;2022-10-31T05:12:06;5.28;;;2.20;;
60336;SDS011;46978;50.288;28.624;2022-10-31T05:13:08;4.13;;;1.79;;
60336;SDS011;46978;50.288;28.624;2022-10-31T05:14:10;8.03;;;2.77;;
60336;SDS011;46978;50.288;28.624;2022-10-31T05:15:11;6.47;;;1.93;;
60336;SDS011;46978;50.288;28.624;2022-10-31T05:16:13;7.61;;;2.41;;
60336;SDS011;46978;50.288;28.624;2022-10-31T05:17:15;6.27;;;2.46;;
60336;SDS011;46978;50.288;28.624;2022-10-31T05:18:17;7.25;;;2.41;;
60336;SDS011;46978;50.288;28.624;2022-10-31T05:19:18;7.95;;;2.54;;
60336;SDS011;46978;50.288;28.624;2022-10-31T05:20:22;7.53;;;2.27;;
60336;SDS011;46978;50.288;28.624;2022-10-31T05:21:25;6.62;;;2.56;;
60336;SDS011;46978;50.288;28.624;2022-10-31T05:22:26;5.29;;;2.29;;
60336;SDS011;46978;50.288;28.624;2022-10-31T05:23:28;5.29;;;2.14;;
60336;SDS011;46978;50.288;28.624;2022-10-31T05:24:30;6.85;;;2.49;;
60336;SDS011;46978;50.288;28.624;2022-10-31T05:25:32;7.97;;;2.60;;
60336;SDS011;46978;50.288;28.624;2022-10-31T05:26:34;5.57;;;2.48;;
60336;SDS011;46978;50.288;28.624;2022-10-31T05:27:38;7.70;;;2.46;;
60336;SDS011;46978;50.288;28.624;2022-10-31T05:28:40;4.94;;;2.39;;
60336;SDS011;46978;50.288;28.624;2022-10-31T05:29:41;8.58;;;2.75;;
60336;SDS011;46978;50.288;28.624;2022-10-31T05:30:43;4.44;;;2.14;;
60336;SDS011;46978;50.288;28.624;2022-10-31T05:31:45;5.96;;;2.78;;
60336;SDS011;46978;50.288;28.624;2022-10-31T05:32:48;7.88;;;2.43;;
60336;SDS011;46978;50.288;28.624;2022-10-31T05:33:51;6.66;;;2.72;;
60336;SDS011;46978;50.288;28.624;2022-10-31T05:34:52;6.55;;;2.96;;
60336;SDS011;46978;50.288;28.624;2022-10-31T05:35:54;7.69;;;2.96;;
60336;SDS011;46978;50.288;28.624;2022-10-31T05:36:56;10.01;;;2.93;;
60336;SDS011;46978;50.288;28.624;2022-10-31T05:37:58;8.44;;;2.99;;
60336;SDS011;46978;50.288;28.624;2022-10-31T05:39:21;7.40;;;2.77;;
60336;SDS011;46978;50.288;28.624;2022-10-31T05:40:23;6.57;;;2.69;;
60336;SDS011;46978;50.288;28.624;2022-10-31T05:41:26;7.90;;;3.20;;
60336;SDS011;46978;50.288;28.624;2022-10-31T05:42:27;8.09;;;3.51;;
60336;SDS011;46978;50.288;28.624;2022-10-31T05:43:29;7.51;;;3.26;;
60336;SDS011;46978;50.288;28.624;2022-10-31T05:44:31;5.48;;;2.76;;
60336;SDS011;46978;50.288;28.624;2022-10-31T05:45:32;6.04;;;2.89;;
60336;SDS011;46978;50.288;28.624;2022-10-31T05:46:34;6.71;;;2.79;;
60336;SDS011;46978;50.288;28.624;2022-10-31T05:47:36;10.20;;;3.04;;
60336;SDS011;46978;50.288;28.624;2022-10-31T05:49:59;11.01;;;2.62;;
60336;SDS011;46978;50.288;28.624;2022-10-31T05:51:01;8.45;;;2.81;;
60336;SDS011;46978;50.288;28.624;2022-10-31T05:52:03;7.26;;;2.63;;
60336;SDS011;46978;50.288;28.624;2022-10-31T05:53:05;6.23;;;2.55;;
60336;SDS011;46978;50.288;28.624;2022-10-31T05:54:07;6.16;;;2.41;;
60336;SDS011;46978;50.288;28.624;2022-10-31T05:55:08;5.71;;;2.41;;
60336;SDS011;46978;50.288;28.624;2022-10-31T05:56:11;8.75;;;2.63;;
60336;SDS011;46978;50.288;28.624;2022-10-31T05:57:13;5.86;;;2.49;;
60336;SDS011;46978;50.288;28.624;2022-10-31T05:58:14;4.88;;;2.29;;
60336;SDS011;46978;50.288;28.624;2022-10-31T05:59:16;6.96;;;2.13;;
60336;SDS011;46978;50.288;28.624;2022-10-31T06:00:18;5.59;;;2.36;;
60336;SDS011;46978;50.288;28.624;2022-10-31T06:01:20;5.61;;;2.29;;
60336;SDS011;46978;50.288;28.624;2022-10-31T06:02:22;5.61;;;2.61;;
60336;SDS011;46978;50.288;28.624;2022-10-31T06:03:24;6.71;;;2.24;;
60336;SDS011;46978;50.288;28.624;2022-10-31T06:04:26;5.50;;;2.39;;
60336;SDS011;46978;50.288;28.624;2022-10-31T06:05:28;5.92;;;2.39;;
60336;SDS011;46978;50.288;28.624;2022-10-31T06:06:31;5.78;;;2.82;;
60336;SDS011;46978;50.288;28.624;2022-10-31T06:07:33;5.49;;;2.41;;
60336;SDS011;46978;50.288;28.624;2022-10-31T06:08:35;5.55;;;2.42;;
60336;SDS011;46978;50.288;28.624;2022-10-31T06:09:37;7.73;;;2.32;;
60336;SDS011;46978;50.288;28.624;2022-10-31T06:10:39;6.19;;;2.08;;
60336;SDS011;46978;50.288;28.624;2022-10-31T06:11:41;5.64;;;2.36;;
60336;SDS011;46978;50.288;28.624;2022-10-31T06:12:42;4.42;;;2.19;;
60336;SDS011;46978;50.288;28.624;2022-10-31T06:13:44;7.19;;;2.45;;
60336;SDS011;46978;50.288;28.624;2022-10-31T06:14:46;6.39;;;2.26;;
60336;SDS011;46978;50.288;28.624;2022-10-31T06:15:47;6.96;;;2.30;;
60336;SDS011;46978;50.288;28.624;2022-10-31T06:16:49;6.97;;;1.85;;
60336;SDS011;46978;50.288;28.624;2022-10-31T06:18:01;6.00;;;2.16;;
60336;SDS011;46978;50.288;28.624;2022-10-31T06:20:27;6.19;;;1.92;;
60336;SDS011;46978;50.288;28.624;2022-10-31T06:21:28;7.21;;;1.78;;
60336;SDS011;46978;50.288;28.624;2022-10-31T06:22:30;5.19;;;1.88;;
60336;SDS011;46978;50.288;28.624;2022-10-31T06:23:32;4.81;;;1.79;;
60336;SDS011;46978;50.288;28.624;2022-10-31T06:24:34;5.40;;;1.85;;
60336;SDS011;46978;50.288;28.624;2022-10-31T06:25:36;5.27;;;1.96;;
60336;SDS011;46978;50.288;28.624;2022-10-31T06:26:38;5.41;;;1.99;;
60336;SDS011;46978;50.288;28.624;2022-10-31T06:27:39;3.66;;;1.75;;
60336;SDS011;46978;50.288;28.624;2022-10-31T06:28:41;5.98;;;1.98;;
60336;SDS011;46978;50.288;28.624;2022-10-31T06:29:43;4.48;;;1.83;;
60336;SDS011;46978;50.288;28.624;2022-10-31T06:30:45;5.57;;;1.90;;
60336;SDS011;46978;50.288;28.624;2022-10-31T06:31:47;6.74;;;2.31;;
60336;SDS011;46978;50.288;28.624;2022-10-31T06:32:48;4.85;;;2.24;;
60336;SDS011;46978;50.288;28.624;2022-10-31T06:33:50;6.57;;;1.95;;
60336;SDS011;46978;50.288;28.624;2022-10-31T06:34:52;3.41;;;1.68;;
60336;SDS011;46978;50.288;28.624;2022-10-31T06:35:54;6.64;;;2.11;;
60336;SDS011;46978;50.288;28.624;2022-10-31T06:36:55;7.40;;;1.96;;
60336;SDS011;46978;50.288;28.624;2022-10-31T06:37:57;4.29;;;1.69;;
60336;SDS011;46978;50.288;28.624;2022-10-31T06:38:59;3.65;;;1.71;;
60336;SDS011;46978;50.288;28.624;2022-10-31T06:40:01;9.98;;;2.07;;
60336;SDS011;46978;50.288;28.624;2022-10-31T06:41:04;6.43;;;2.04;;
60336;SDS011;46978;50.288;28.624;2022-10-31T06:42:06;5.19;;;1.87;;
60336;SDS011;46978;50.288;28.624;2022-10-31T06:43:08;4.04;;;1.70;;
60336;SDS011;46978;50.288;28.624;2022-10-31T06:44:10;4.08;;;1.57;;
60336;SDS011;46978;50.288;28.624;2022-10-31T06:45:11;5.21;;;1.53;;
60336;SDS011;46978;50.288;28.624;2022-10-31T06:46:14;6.23;;;1.36;;
60336;SDS011;46978;50.288;28.624;2022-10-31T06:47:15;6.61;;;1.63;;
60336;SDS011;46978;50.288;28.624;2022-10-31T06:48:17;3.48;;;1.39;;
60336;SDS011;46978;50.288;28.624;2022-10-31T06:49:19;4.98;;;1.46;;
60336;SDS011;46978;50.288;28.624;2022-10-31T06:50:21;5.17;;;1.60;;
60336;SDS011;46978;50.288;28.624;2022-10-31T06:51:23;3.43;;;1.27;;
60336;SDS011;46978;50.288;28.624;2022-10-31T06:52:25;3.71;;;1.28;;
60336;SDS011;46978;50.288;28.624;2022-10-31T06:53:27;6.39;;;1.69;;
60336;SDS011;46978;50.288;28.624;2022-10-31T06:54:29;3.44;;;1.39;;
60336;SDS011;46978;50.288;28.624;2022-10-31T06:55:31;7.13;;;1.58;;
60336;SDS011;46978;50.288;28.624;2022-10-31T06:56:33;4.66;;;1.39;;
60336;SDS011;46978;50.288;28.624;2022-10-31T06:57:35;3.98;;;1.53;;